sensor_id;sensor_type;location;lat;lon;timestamp;P1;durP1;ratioP1;P2;durP2;ratioP2
22904;SDS011;11619;50.140;8.518;2023-04-29T00:01:40;3.97;;;2.00;;
22904;SDS011;11619;50.140;8.518;2023-04-29T00:04:06;2.03;;;1.90;;
22904;SDS011;11619;50.140;8.518;2023-04-29T00:06:33;3.70;;;2.50;;
22904;SDS011;11619;50.140;8.518;2023-04-29T00:08:59;2.33;;;1.90;;
22904;SDS011;11619;50.140;8.518;2023-04-29T00:11:26;2.92;;;2.30;;
22904;SDS011;11619;50.140;8.518;2023-04-29T00:13:52;2.33;;;2.05;;
22904;SDS011;11619;50.140;8.518;2023-04-29T00:16:18;2.90;;;1.98;;
22904;SDS011;11619;50.140;8.518;2023-04-29T00:18:45;2.47;;;2.28;;
22904;SDS011;11619;50.140;8.518;2023-04-29T00:21:12;2.88;;;2.10;;
22904;SDS011;11619;50.140;8.518;2023-04-29T00:23:38;2.40;;;2.20;;
22904;SDS011;11619;50.140;8.518;2023-04-29T00:26:05;3.38;;;2.08;;
22904;SDS011;11619;50.140;8.518;2023-04-29T00:28:31;4.15;;;2.30;;
22904;SDS011;11619;50.140;8.518;2023-04-29T00:30:58;2.97;;;2.38;;
22904;SDS011;11619;50.140;8.518;2023-04-29T00:33:24;2.08;;;1.95;;
22904;SDS011;11619;50.140;8.518;2023-04-29T00:35:51;5.10;;;2.53;;
22904;SDS011;11619;50.140;8.518;2023-04-29T00:38:17;4.38;;;2.53;;
22904;SDS011;11619;50.140;8.518;2023-04-29T00:40:43;2.65;;;2.40;;
22904;SDS011;11619;50.140;8.518;2023-04-29T00:43:10;2.53;;;2.33;;
22904;SDS011;11619;50.140;8.518;2023-04-29T00:45:36;2.50;;;2.20;;
22904;SDS011;11619;50.140;8.518;2023-04-29T00:48:03;2.72;;;2.20;;
22904;SDS011;11619;50.140;8.518;2023-04-29T00:50:30;2.35;;;2.15;;
22904;SDS011;11619;50.140;8.518;2023-04-29T00:52:56;2.30;;;2.10;;
22904;SDS011;11619;50.140;8.518;2023-04-29T00:55:23;5.63;;;2.28;;
22904;SDS011;11619;50.140;8.518;2023-04-29T00:57:49;3.30;;;2.00;;
22904;SDS011;11619;50.140;8.518;2023-04-29T01:00:18;2.35;;;2.15;;
22904;SDS011;11619;50.140;8.518;2023-04-29T01:02:44;2.40;;;2.20;;
22904;SDS011;11619;50.140;8.518;2023-04-29T01:05:11;2.40;;;2.05;;
22904;SDS011;11619;50.140;8.518;2023-04-29T01:07:42;1.90;;;1.80;;
22904;SDS011;11619;50.140;8.518;2023-04-29T01:10:30;2.13;;;1.88;;
22904;SDS011;11619;50.140;8.518;2023-04-29T01:13:06;3.30;;;1.88;;
22904;SDS011;11619;50.140;8.518;2023-04-29T01:15:50;2.30;;;1.90;;
22904;SDS011;11619;50.140;8.518;2023-04-29T01:18:25;2.80;;;2.03;;
22904;SDS011;11619;50.140;8.518;2023-04-29T01:20:53;2.22;;;1.90;;
22904;SDS011;11619;50.140;8.518;2023-04-29T01:23:24;2.10;;;1.92;;
22904;SDS011;11619;50.140;8.518;2023-04-29T01:25:51;3.85;;;1.92;;
22904;SDS011;11619;50.140;8.518;2023-04-29T01:28:21;3.67;;;2.05;;
22904;SDS011;11619;50.140;8.518;2023-04-29T01:33:33;2.00;;;1.67;;
22904;SDS011;11619;50.140;8.518;2023-04-29T01:44:31;4.68;;;2.00;;
22904;SDS011;11619;50.140;8.518;2023-04-29T01:46:58;2.22;;;1.92;;
22904;SDS011;11619;50.140;8.518;2023-04-29T01:49:26;2.45;;;1.95;;
22904;SDS011;11619;50.140;8.518;2023-04-29T01:51:53;3.25;;;2.03;;
22904;SDS011;11619;50.140;8.518;2023-04-29T01:54:20;3.33;;;2.45;;
22904;SDS011;11619;50.140;8.518;2023-04-29T01:56:47;2.20;;;2.10;;
22904;SDS011;11619;50.140;8.518;2023-04-29T01:59:13;2.38;;;2.17;;
22904;SDS011;11619;50.140;8.518;2023-04-29T02:01:40;3.90;;;2.40;;
22904;SDS011;11619;50.140;8.518;2023-04-29T02:04:06;2.80;;;2.60;;
22904;SDS011;11619;50.140;8.518;2023-04-29T02:06:33;3.05;;;2.83;;
22904;SDS011;11619;50.140;8.518;2023-04-29T02:08:59;3.92;;;3.15;;
22904;SDS011;11619;50.140;8.518;2023-04-29T02:11:26;3.58;;;3.30;;
22904;SDS011;11619;50.140;8.518;2023-04-29T02:13:52;3.92;;;3.60;;
22904;SDS011;11619;50.140;8.518;2023-04-29T02:16:19;5.93;;;4.07;;
22904;SDS011;11619;50.140;8.518;2023-04-29T02:18:46;5.97;;;3.78;;
22904;SDS011;11619;50.140;8.518;2023-04-29T02:21:12;4.82;;;4.43;;
22904;SDS011;11619;50.140;8.518;2023-04-29T02:23:38;4.50;;;4.10;;
22904;SDS011;11619;50.140;8.518;2023-04-29T02:26:05;4.18;;;3.85;;
22904;SDS011;11619;50.140;8.518;2023-04-29T02:28:32;4.30;;;3.90;;
22904;SDS011;11619;50.140;8.518;2023-04-29T02:31:00;4.43;;;3.55;;
22904;SDS011;11619;50.140;8.518;2023-04-29T02:33:26;4.75;;;4.35;;
22904;SDS011;11619;50.140;8.518;2023-04-29T02:35:59;4.78;;;4.38;;
22904;SDS011;11619;50.140;8.518;2023-04-29T02:38:25;6.82;;;5.00;;
22904;SDS011;11619;50.140;8.518;2023-04-29T02:40:52;6.68;;;5.32;;
22904;SDS011;11619;50.140;8.518;2023-04-29T02:43:18;5.72;;;5.22;;
22904;SDS011;11619;50.140;8.518;2023-04-29T02:45:44;7.45;;;6.78;;
22904;SDS011;11619;50.140;8.518;2023-04-29T02:48:11;8.00;;;7.25;;
22904;SDS011;11619;50.140;8.518;2023-04-29T02:50:37;8.15;;;7.45;;
22904;SDS011;11619;50.140;8.518;2023-04-29T02:53:04;8.40;;;7.60;;
22904;SDS011;11619;50.140;8.518;2023-04-29T02:55:30;8.48;;;7.57;;
22904;SDS011;11619;50.140;8.518;2023-04-29T02:57:56;9.18;;;8.27;;
22904;SDS011;11619;50.140;8.518;2023-04-29T03:00:23;9.55;;;8.52;;
22904;SDS011;11619;50.140;8.518;2023-04-29T03:02:49;9.50;;;8.63;;
22904;SDS011;11619;50.140;8.518;2023-04-29T03:05:16;9.68;;;8.02;;
22904;SDS011;11619;50.140;8.518;2023-04-29T03:07:42;9.40;;;8.40;;
22904;SDS011;11619;50.140;8.518;2023-04-29T03:10:09;9.32;;;8.43;;
22904;SDS011;11619;50.140;8.518;2023-04-29T03:12:36;10.07;;;9.02;;
22904;SDS011;11619;50.140;8.518;2023-04-29T03:15:05;9.07;;;8.27;;
22904;SDS011;11619;50.140;8.518;2023-04-29T03:17:32;9.43;;;8.60;;
22904;SDS011;11619;50.140;8.518;2023-04-29T03:19:59;9.13;;;8.20;;
22904;SDS011;11619;50.140;8.518;2023-04-29T03:22:26;9.48;;;8.45;;
22904;SDS011;11619;50.140;8.518;2023-04-29T03:24:52;9.70;;;8.80;;
22904;SDS011;11619;50.140;8.518;2023-04-29T03:27:18;9.82;;;8.82;;
22904;SDS011;11619;50.140;8.518;2023-04-29T03:29:45;10.70;;;9.45;;
22904;SDS011;11619;50.140;8.518;2023-04-29T03:32:11;10.70;;;9.43;;
22904;SDS011;11619;50.140;8.518;2023-04-29T03:34:38;11.27;;;10.18;;
22904;SDS011;11619;50.140;8.518;2023-04-29T03:37:04;11.75;;;10.65;;
22904;SDS011;11619;50.140;8.518;2023-04-29T03:39:31;11.70;;;10.50;;
22904;SDS011;11619;50.140;8.518;2023-04-29T03:41:57;12.00;;;10.35;;
22904;SDS011;11619;50.140;8.518;2023-04-29T03:44:24;11.15;;;10.05;;
22904;SDS011;11619;50.140;8.518;2023-04-29T03:46:51;12.30;;;11.10;;
22904;SDS011;11619;50.140;8.518;2023-04-29T03:49:18;11.88;;;10.68;;
22904;SDS011;11619;50.140;8.518;2023-04-29T03:51:44;12.40;;;10.98;;
22904;SDS011;11619;50.140;8.518;2023-04-29T03:54:11;13.77;;;11.25;;
22904;SDS011;11619;50.140;8.518;2023-04-29T03:56:38;12.70;;;11.45;;
22904;SDS011;11619;50.140;8.518;2023-04-29T03:59:04;13.50;;;10.85;;
22904;SDS011;11619;50.140;8.518;2023-04-29T04:01:31;11.35;;;10.25;;
22904;SDS011;11619;50.140;8.518;2023-04-29T04:03:58;12.85;;;11.35;;
22904;SDS011;11619;50.140;8.518;2023-04-29T04:06:25;12.95;;;11.52;;
22904;SDS011;11619;50.140;8.518;2023-04-29T04:08:51;13.30;;;11.80;;
22904;SDS011;11619;50.140;8.518;2023-04-29T04:11:18;13.60;;;12.13;;
22904;SDS011;11619;50.140;8.518;2023-04-29T04:13:44;12.00;;;10.80;;
22904;SDS011;11619;50.140;8.518;2023-04-29T04:16:11;12.95;;;11.32;;
22904;SDS011;11619;50.140;8.518;2023-04-29T04:18:37;12.88;;;10.98;;
22904;SDS011;11619;50.140;8.518;2023-04-29T04:21:10;13.60;;;12.20;;
22904;SDS011;11619;50.140;8.518;2023-04-29T04:23:37;13.55;;;12.20;;
22904;SDS011;11619;50.140;8.518;2023-04-29T04:26:07;14.48;;;12.98;;
22904;SDS011;11619;50.140;8.518;2023-04-29T04:28:33;15.65;;;13.30;;
22904;SDS011;11619;50.140;8.518;2023-04-29T04:31:00;14.15;;;12.55;;
22904;SDS011;11619;50.140;8.518;2023-04-29T04:33:26;14.40;;;12.93;;
22904;SDS011;11619;50.140;8.518;2023-04-29T04:35:53;14.73;;;13.23;;
22904;SDS011;11619;50.140;8.518;2023-04-29T04:38:19;13.57;;;12.27;;
22904;SDS011;11619;50.140;8.518;2023-04-29T04:40:45;14.75;;;13.23;;
22904;SDS011;11619;50.140;8.518;2023-04-29T04:43:12;15.50;;;13.85;;
22904;SDS011;11619;50.140;8.518;2023-04-29T04:45:38;16.27;;;13.82;;
22904;SDS011;11619;50.140;8.518;2023-04-29T04:48:05;14.90;;;13.32;;
22904;SDS011;11619;50.140;8.518;2023-04-29T04:50:31;15.00;;;13.00;;
22904;SDS011;11619;50.140;8.518;2023-04-29T04:52:58;15.00;;;12.95;;
22904;SDS011;11619;50.140;8.518;2023-04-29T04:55:24;12.55;;;11.25;;
22904;SDS011;11619;50.140;8.518;2023-04-29T04:57:51;14.23;;;12.45;;
22904;SDS011;11619;50.140;8.518;2023-04-29T05:00:17;15.30;;;12.65;;
22904;SDS011;11619;50.140;8.518;2023-04-29T05:02:44;12.50;;;11.10;;
22904;SDS011;11619;50.140;8.518;2023-04-29T05:05:11;13.15;;;11.20;;
22904;SDS011;11619;50.140;8.518;2023-04-29T05:07:37;15.35;;;11.27;;
22904;SDS011;11619;50.140;8.518;2023-04-29T05:10:04;13.38;;;10.93;;
22904;SDS011;11619;50.140;8.518;2023-04-29T05:12:31;12.25;;;10.95;;
22904;SDS011;11619;50.140;8.518;2023-04-29T05:15:00;12.95;;;10.73;;
22904;SDS011;11619;50.140;8.518;2023-04-29T05:17:27;13.02;;;10.88;;
22904;SDS011;11619;50.140;8.518;2023-04-29T05:19:53;11.65;;;10.05;;
22904;SDS011;11619;50.140;8.518;2023-04-29T05:22:20;12.30;;;10.88;;
22904;SDS011;11619;50.140;8.518;2023-04-29T05:24:46;13.30;;;10.43;;
22904;SDS011;11619;50.140;8.518;2023-04-29T05:27:14;11.20;;;9.88;;
22904;SDS011;11619;50.140;8.518;2023-04-29T05:29:40;11.18;;;9.80;;
22904;SDS011;11619;50.140;8.518;2023-04-29T05:32:07;11.38;;;8.57;;
22904;SDS011;11619;50.140;8.518;2023-04-29T05:34:33;12.20;;;9.63;;
22904;SDS011;11619;50.140;8.518;2023-04-29T05:37:00;10.93;;;8.55;;
22904;SDS011;11619;50.140;8.518;2023-04-29T05:39:26;9.45;;;8.30;;
22904;SDS011;11619;50.140;8.518;2023-04-29T05:41:53;11.32;;;8.85;;
22904;SDS011;11619;50.140;8.518;2023-04-29T05:44:19;10.75;;;9.50;;
22904;SDS011;11619;50.140;8.518;2023-04-29T05:46:45;12.23;;;9.00;;
22904;SDS011;11619;50.140;8.518;2023-04-29T05:49:13;10.65;;;8.88;;
22904;SDS011;11619;50.140;8.518;2023-04-29T05:51:40;10.93;;;9.05;;
22904;SDS011;11619;50.140;8.518;2023-04-29T05:54:07;11.43;;;10.18;;
22904;SDS011;11619;50.140;8.518;2023-04-29T05:56:33;11.20;;;9.77;;
22904;SDS011;11619;50.140;8.518;2023-04-29T05:59:00;11.50;;;9.60;;
22904;SDS011;11619;50.140;8.518;2023-04-29T06:01:26;11.88;;;9.23;;
22904;SDS011;11619;50.140;8.518;2023-04-29T06:03:53;11.10;;;9.95;;
22904;SDS011;11619;50.140;8.518;2023-04-29T06:06:19;10.80;;;9.13;;
22904;SDS011;11619;50.140;8.518;2023-04-29T06:08:46;11.63;;;9.50;;
22904;SDS011;11619;50.140;8.518;2023-04-29T06:11:12;11.20;;;10.07;;
22904;SDS011;11619;50.140;8.518;2023-04-29T06:13:39;10.68;;;9.10;;
22904;SDS011;11619;50.140;8.518;2023-04-29T06:16:06;11.68;;;9.70;;
22904;SDS011;11619;50.140;8.518;2023-04-29T06:18:33;10.95;;;8.80;;
22904;SDS011;11619;50.140;8.518;2023-04-29T06:20:59;10.45;;;8.60;;
22904;SDS011;11619;50.140;8.518;2023-04-29T06:23:25;10.98;;;8.80;;
22904;SDS011;11619;50.140;8.518;2023-04-29T06:25:52;11.95;;;9.13;;
22904;SDS011;11619;50.140;8.518;2023-04-29T06:28:18;10.05;;;8.05;;
22904;SDS011;11619;50.140;8.518;2023-04-29T06:30:45;10.82;;;8.45;;
22904;SDS011;11619;50.140;8.518;2023-04-29T06:33:11;13.18;;;10.32;;
22904;SDS011;11619;50.140;8.518;2023-04-29T06:35:38;10.77;;;8.98;;
22904;SDS011;11619;50.140;8.518;2023-04-29T06:38:06;12.65;;;10.00;;
22904;SDS011;11619;50.140;8.518;2023-04-29T06:40:35;12.63;;;10.10;;
22904;SDS011;11619;50.140;8.518;2023-04-29T06:43:02;12.57;;;9.95;;
22904;SDS011;11619;50.140;8.518;2023-04-29T06:45:29;14.82;;;10.07;;
22904;SDS011;11619;50.140;8.518;2023-04-29T06:47:56;10.60;;;8.90;;
22904;SDS011;11619;50.140;8.518;2023-04-29T06:50:23;11.10;;;9.05;;
22904;SDS011;11619;50.140;8.518;2023-04-29T06:52:49;12.00;;;9.93;;
22904;SDS011;11619;50.140;8.518;2023-04-29T06:55:15;12.77;;;9.13;;
22904;SDS011;11619;50.140;8.518;2023-04-29T06:57:42;10.27;;;8.30;;
22904;SDS011;11619;50.140;8.518;2023-04-29T07:00:08;10.98;;;9.13;;
22904;SDS011;11619;50.140;8.518;2023-04-29T07:02:35;10.60;;;8.88;;
22904;SDS011;11619;50.140;8.518;2023-04-29T07:05:04;10.07;;;8.65;;
22904;SDS011;11619;50.140;8.518;2023-04-29T07:07:31;9.18;;;7.82;;
22904;SDS011;11619;50.140;8.518;2023-04-29T07:09:58;9.82;;;7.97;;
22904;SDS011;11619;50.140;8.518;2023-04-29T07:12:25;8.55;;;7.57;;
22904;SDS011;11619;50.140;8.518;2023-04-29T07:14:52;10.40;;;8.57;;
22904;SDS011;11619;50.140;8.518;2023-04-29T07:17:18;14.57;;;8.35;;
22904;SDS011;11619;50.140;8.518;2023-04-29T07:19:45;15.07;;;8.68;;
22904;SDS011;11619;50.140;8.518;2023-04-29T07:22:12;9.90;;;8.05;;
22904;SDS011;11619;50.140;8.518;2023-04-29T07:24:38;9.40;;;8.05;;
22904;SDS011;11619;50.140;8.518;2023-04-29T07:27:05;9.75;;;7.82;;
22904;SDS011;11619;50.140;8.518;2023-04-29T07:29:32;8.43;;;7.05;;
22904;SDS011;11619;50.140;8.518;2023-04-29T07:31:58;11.40;;;7.30;;
22904;SDS011;11619;50.140;8.518;2023-04-29T07:34:24;7.50;;;6.70;;
22904;SDS011;11619;50.140;8.518;2023-04-29T07:36:51;8.07;;;7.28;;
22904;SDS011;11619;50.140;8.518;2023-04-29T07:39:17;9.95;;;7.03;;
22904;SDS011;11619;50.140;8.518;2023-04-29T07:41:44;7.75;;;6.95;;
22904;SDS011;11619;50.140;8.518;2023-04-29T07:44:11;8.98;;;7.38;;
22904;SDS011;11619;50.140;8.518;2023-04-29T07:46:37;8.75;;;7.40;;
22904;SDS011;11619;50.140;8.518;2023-04-29T07:49:04;10.48;;;6.85;;
22904;SDS011;11619;50.140;8.518;2023-04-29T07:51:31;7.78;;;6.75;;
22904;SDS011;11619;50.140;8.518;2023-04-29T07:53:58;7.55;;;6.75;;
22904;SDS011;11619;50.140;8.518;2023-04-29T07:56:24;8.50;;;7.03;;
22904;SDS011;11619;50.140;8.518;2023-04-29T07:58:51;7.75;;;6.20;;
22904;SDS011;11619;50.140;8.518;2023-04-29T08:01:17;11.48;;;7.43;;
22904;SDS011;11619;50.140;8.518;2023-04-29T08:03:44;8.85;;;6.78;;
22904;SDS011;11619;50.140;8.518;2023-04-29T08:06:11;7.95;;;7.10;;
22904;SDS011;11619;50.140;8.518;2023-04-29T08:08:37;8.98;;;7.00;;
22904;SDS011;11619;50.140;8.518;2023-04-29T08:11:04;9.52;;;6.43;;
22904;SDS011;11619;50.140;8.518;2023-04-29T08:13:31;8.98;;;7.00;;
22904;SDS011;11619;50.140;8.518;2023-04-29T08:15:58;9.07;;;6.80;;
22904;SDS011;11619;50.140;8.518;2023-04-29T08:18:24;8.02;;;6.47;;
22904;SDS011;11619;50.140;8.518;2023-04-29T08:20:50;7.65;;;6.00;;
22904;SDS011;11619;50.140;8.518;2023-04-29T08:23:17;7.30;;;5.80;;
22904;SDS011;11619;50.140;8.518;2023-04-29T08:25:44;7.38;;;5.40;;
22904;SDS011;11619;50.140;8.518;2023-04-29T08:28:10;7.85;;;5.78;;
22904;SDS011;11619;50.140;8.518;2023-04-29T08:30:38;6.05;;;5.32;;
22904;SDS011;11619;50.140;8.518;2023-04-29T08:33:07;6.32;;;5.72;;
22904;SDS011;11619;50.140;8.518;2023-04-29T08:35:34;7.20;;;6.00;;
22904;SDS011;11619;50.140;8.518;2023-04-29T08:38:04;6.45;;;5.63;;
22904;SDS011;11619;50.140;8.518;2023-04-29T08:40:34;7.32;;;5.82;;
22904;SDS011;11619;50.140;8.518;2023-04-29T08:43:02;8.52;;;6.70;;
22904;SDS011;11619;50.140;8.518;2023-04-29T08:45:30;6.00;;;5.40;;
22904;SDS011;11619;50.140;8.518;2023-04-29T08:47:57;7.57;;;5.65;;
22904;SDS011;11619;50.140;8.518;2023-04-29T08:50:24;5.95;;;5.22;;
22904;SDS011;11619;50.140;8.518;2023-04-29T08:52:51;5.95;;;4.93;;
22904;SDS011;11619;50.140;8.518;2023-04-29T08:55:17;6.35;;;5.75;;
22904;SDS011;11619;50.140;8.518;2023-04-29T08:57:44;6.80;;;5.82;;
22904;SDS011;11619;50.140;8.518;2023-04-29T09:00:13;6.20;;;5.60;;
22904;SDS011;11619;50.140;8.518;2023-04-29T09:02:46;6.22;;;5.63;;
22904;SDS011;11619;50.140;8.518;2023-04-29T09:05:15;6.55;;;5.80;;
22904;SDS011;11619;50.140;8.518;2023-04-29T09:07:41;9.02;;;5.72;;
22904;SDS011;11619;50.140;8.518;2023-04-29T09:10:09;6.10;;;5.50;;
22904;SDS011;11619;50.140;8.518;2023-04-29T09:12:36;6.05;;;5.45;;
22904;SDS011;11619;50.140;8.518;2023-04-29T09:15:02;7.05;;;6.35;;
22904;SDS011;11619;50.140;8.518;2023-04-29T09:22:47;6.97;;;6.25;;
22904;SDS011;11619;50.140;8.518;2023-04-29T09:25:17;6.60;;;5.90;;
22904;SDS011;11619;50.140;8.518;2023-04-29T09:27:44;8.70;;;6.20;;
22904;SDS011;11619;50.140;8.518;2023-04-29T09:30:10;8.20;;;5.13;;
22904;SDS011;11619;50.140;8.518;2023-04-29T09:32:38;7.13;;;4.80;;
22904;SDS011;11619;50.140;8.518;2023-04-29T09:35:21;5.85;;;5.25;;
22904;SDS011;11619;50.140;8.518;2023-04-29T09:37:48;7.90;;;5.57;;
22904;SDS011;11619;50.140;8.518;2023-04-29T09:40:26;5.38;;;4.47;;
22904;SDS011;11619;50.140;8.518;2023-04-29T09:42:57;4.78;;;4.30;;
22904;SDS011;11619;50.140;8.518;2023-04-29T09:45:36;6.78;;;4.63;;
22904;SDS011;11619;50.140;8.518;2023-04-29T09:48:04;5.20;;;4.18;;
22904;SDS011;11619;50.140;8.518;2023-04-29T09:50:31;5.15;;;4.65;;
22904;SDS011;11619;50.140;8.518;2023-04-29T09:52:58;5.28;;;4.78;;
22904;SDS011;11619;50.140;8.518;2023-04-29T09:55:25;5.22;;;4.72;;
22904;SDS011;11619;50.140;8.518;2023-04-29T09:57:52;5.05;;;4.55;;
22904;SDS011;11619;50.140;8.518;2023-04-29T10:00:19;4.97;;;4.38;;
22904;SDS011;11619;50.140;8.518;2023-04-29T10:02:46;4.57;;;4.18;;
22904;SDS011;11619;50.140;8.518;2023-04-29T10:05:13;5.05;;;4.55;;
22904;SDS011;11619;50.140;8.518;2023-04-29T10:07:43;5.38;;;4.40;;
22904;SDS011;11619;50.140;8.518;2023-04-29T10:10:11;4.40;;;4.00;;
22904;SDS011;11619;50.140;8.518;2023-04-29T10:12:39;4.63;;;4.20;;
22904;SDS011;11619;50.140;8.518;2023-04-29T10:15:10;3.63;;;3.33;;
22904;SDS011;11619;50.140;8.518;2023-04-29T10:17:48;5.20;;;4.68;;
22904;SDS011;11619;50.140;8.518;2023-04-29T10:20:20;4.32;;;3.92;;
22904;SDS011;11619;50.140;8.518;2023-04-29T10:22:48;4.65;;;3.38;;
22904;SDS011;11619;50.140;8.518;2023-04-29T10:25:17;3.67;;;3.30;;
22904;SDS011;11619;50.140;8.518;2023-04-29T10:27:45;3.80;;;3.45;;
22904;SDS011;11619;50.140;8.518;2023-04-29T10:30:12;3.53;;;3.22;;
22904;SDS011;11619;50.140;8.518;2023-04-29T10:32:43;4.10;;;3.42;;
22904;SDS011;11619;50.140;8.518;2023-04-29T10:35:17;3.50;;;3.20;;
22904;SDS011;11619;50.140;8.518;2023-04-29T10:37:45;3.53;;;3.22;;
22904;SDS011;11619;50.140;8.518;2023-04-29T10:40:17;2.90;;;2.40;;
22904;SDS011;11619;50.140;8.518;2023-04-29T10:42:48;3.05;;;2.70;;
22904;SDS011;11619;50.140;8.518;2023-04-29T10:45:31;3.63;;;2.65;;
22904;SDS011;11619;50.140;8.518;2023-04-29T10:50:31;4.03;;;2.40;;
22904;SDS011;11619;50.140;8.518;2023-04-29T10:53:01;2.65;;;2.45;;
22904;SDS011;11619;50.140;8.518;2023-04-29T10:55:28;2.90;;;2.70;;
22904;SDS011;11619;50.140;8.518;2023-04-29T10:57:56;2.70;;;2.50;;
22904;SDS011;11619;50.140;8.518;2023-04-29T11:00:26;2.75;;;2.45;;
22904;SDS011;11619;50.140;8.518;2023-04-29T11:02:53;3.17;;;2.80;;
22904;SDS011;11619;50.140;8.518;2023-04-29T11:08:09;2.72;;;2.53;;
22904;SDS011;11619;50.140;8.518;2023-04-29T11:10:41;4.70;;;2.60;;
22904;SDS011;11619;50.140;8.518;2023-04-29T11:13:23;2.97;;;2.15;;
22904;SDS011;11619;50.140;8.518;2023-04-29T11:16:14;4.15;;;2.42;;
22904;SDS011;11619;50.140;8.518;2023-04-29T11:21:35;2.90;;;2.70;;
22904;SDS011;11619;50.140;8.518;2023-04-29T11:24:02;2.97;;;2.58;;
22904;SDS011;11619;50.140;8.518;2023-04-29T11:26:34;2.88;;;2.67;;
22904;SDS011;11619;50.140;8.518;2023-04-29T11:29:01;3.63;;;2.95;;
22904;SDS011;11619;50.140;8.518;2023-04-29T11:31:30;3.65;;;2.70;;
22904;SDS011;11619;50.140;8.518;2023-04-29T11:33:58;2.60;;;2.40;;
22904;SDS011;11619;50.140;8.518;2023-04-29T11:36:25;2.92;;;2.42;;
22904;SDS011;11619;50.140;8.518;2023-04-29T11:38:52;2.95;;;2.75;;
22904;SDS011;11619;50.140;8.518;2023-04-29T11:41:19;2.80;;;2.60;;
22904;SDS011;11619;50.140;8.518;2023-04-29T11:43:46;3.20;;;2.90;;
22904;SDS011;11619;50.140;8.518;2023-04-29T11:48:47;3.45;;;3.10;;
22904;SDS011;11619;50.140;8.518;2023-04-29T11:51:15;2.60;;;2.40;;
22904;SDS011;11619;50.140;8.518;2023-04-29T11:53:42;3.10;;;2.80;;
22904;SDS011;11619;50.140;8.518;2023-04-29T11:56:09;4.53;;;3.17;;
22904;SDS011;11619;50.140;8.518;2023-04-29T11:58:36;3.00;;;2.70;;
22904;SDS011;11619;50.140;8.518;2023-04-29T12:01:03;3.13;;;2.60;;
22904;SDS011;11619;50.140;8.518;2023-04-29T12:03:31;2.63;;;2.42;;
22904;SDS011;11619;50.140;8.518;2023-04-29T12:06:00;5.22;;;3.42;;
22904;SDS011;11619;50.140;8.518;2023-04-29T12:08:27;6.50;;;3.05;;
22904;SDS011;11619;50.140;8.518;2023-04-29T12:10:54;3.13;;;2.83;;
22904;SDS011;11619;50.140;8.518;2023-04-29T12:13:22;3.28;;;2.90;;
22904;SDS011;11619;50.140;8.518;2023-04-29T12:15:50;3.17;;;2.88;;
22904;SDS011;11619;50.140;8.518;2023-04-29T12:18:17;3.33;;;3.05;;
22904;SDS011;11619;50.140;8.518;2023-04-29T12:20:45;2.80;;;2.60;;
22904;SDS011;11619;50.140;8.518;2023-04-29T12:23:13;2.67;;;2.47;;
22904;SDS011;11619;50.140;8.518;2023-04-29T12:25:41;3.13;;;2.83;;
22904;SDS011;11619;50.140;8.518;2023-04-29T12:28:11;2.72;;;2.53;;
22904;SDS011;11619;50.140;8.518;2023-04-29T12:30:38;2.95;;;2.70;;
22904;SDS011;11619;50.140;8.518;2023-04-29T12:33:08;2.58;;;2.25;;
22904;SDS011;11619;50.140;8.518;2023-04-29T12:35:37;3.53;;;2.75;;
22904;SDS011;11619;50.140;8.518;2023-04-29T12:38:04;2.97;;;2.78;;
22904;SDS011;11619;50.140;8.518;2023-04-29T12:40:31;3.10;;;2.80;;
22904;SDS011;11619;50.140;8.518;2023-04-29T12:43:05;3.05;;;2.35;;
22904;SDS011;11619;50.140;8.518;2023-04-29T12:45:33;2.33;;;2.13;;
22904;SDS011;11619;50.140;8.518;2023-04-29T12:48:00;3.35;;;2.63;;
22904;SDS011;11619;50.140;8.518;2023-04-29T12:50:34;2.72;;;2.53;;
22904;SDS011;11619;50.140;8.518;2023-04-29T12:53:02;2.95;;;2.13;;
22904;SDS011;11619;50.140;8.518;2023-04-29T12:55:30;2.78;;;2.13;;
22904;SDS011;11619;50.140;8.518;2023-04-29T12:57:57;2.17;;;1.98;;
22904;SDS011;11619;50.140;8.518;2023-04-29T13:00:26;2.15;;;1.80;;
22904;SDS011;11619;50.140;8.518;2023-04-29T13:02:53;1.98;;;1.88;;
22904;SDS011;11619;50.140;8.518;2023-04-29T13:05:21;2.10;;;1.90;;
22904;SDS011;11619;50.140;8.518;2023-04-29T13:07:48;3.55;;;2.30;;
22904;SDS011;11619;50.140;8.518;2023-04-29T13:10:16;2.20;;;2.00;;
22904;SDS011;11619;50.140;8.518;2023-04-29T13:12:42;2.40;;;2.20;;
22904;SDS011;11619;50.140;8.518;2023-04-29T13:15:08;2.95;;;2.75;;
22904;SDS011;11619;50.140;8.518;2023-04-29T13:17:36;3.33;;;3.08;;
22904;SDS011;11619;50.140;8.518;2023-04-29T13:20:03;3.05;;;2.85;;
22904;SDS011;11619;50.140;8.518;2023-04-29T13:22:30;2.88;;;2.67;;
22904;SDS011;11619;50.140;8.518;2023-04-29T13:24:57;3.20;;;2.90;;
22904;SDS011;11619;50.140;8.518;2023-04-29T13:27:24;4.03;;;3.30;;
22904;SDS011;11619;50.140;8.518;2023-04-29T13:29:50;3.30;;;3.00;;
22904;SDS011;11619;50.140;8.518;2023-04-29T13:32:17;2.85;;;2.65;;
22904;SDS011;11619;50.140;8.518;2023-04-29T13:34:44;3.00;;;2.70;;
22904;SDS011;11619;50.140;8.518;2023-04-29T13:37:10;3.10;;;2.90;;
22904;SDS011;11619;50.140;8.518;2023-04-29T13:39:37;3.15;;;2.85;;
22904;SDS011;11619;50.140;8.518;2023-04-29T13:42:03;3.90;;;3.55;;
22904;SDS011;11619;50.140;8.518;2023-04-29T13:44:30;3.97;;;3.67;;
22904;SDS011;11619;50.140;8.518;2023-04-29T13:49:44;3.10;;;2.90;;
22904;SDS011;11619;50.140;8.518;2023-04-29T13:52:31;3.20;;;2.90;;
22904;SDS011;11619;50.140;8.518;2023-04-29T13:55:00;3.03;;;2.80;;
22904;SDS011;11619;50.140;8.518;2023-04-29T13:57:47;3.20;;;2.90;;
22904;SDS011;11619;50.140;8.518;2023-04-29T14:00:16;2.70;;;2.50;;
22904;SDS011;11619;50.140;8.518;2023-04-29T14:02:45;3.60;;;2.53;;
22904;SDS011;11619;50.140;8.518;2023-04-29T14:05:23;2.83;;;2.63;;
22904;SDS011;11619;50.140;8.518;2023-04-29T14:07:50;2.45;;;2.25;;
22904;SDS011;11619;50.140;8.518;2023-04-29T14:10:17;2.60;;;2.40;;
22904;SDS011;11619;50.140;8.518;2023-04-29T14:12:43;2.50;;;2.30;;
22904;SDS011;11619;50.140;8.518;2023-04-29T14:15:10;2.45;;;2.25;;
22904;SDS011;11619;50.140;8.518;2023-04-29T14:17:37;2.95;;;2.10;;
22904;SDS011;11619;50.140;8.518;2023-04-29T14:20:03;1.90;;;1.80;;
22904;SDS011;11619;50.140;8.518;2023-04-29T14:22:31;2.30;;;1.90;;
22904;SDS011;11619;50.140;8.518;2023-04-29T14:24:57;2.53;;;2.00;;
22904;SDS011;11619;50.140;8.518;2023-04-29T14:27:23;2.08;;;1.88;;
22904;SDS011;11619;50.140;8.518;2023-04-29T14:29:50;2.08;;;1.85;;
22904;SDS011;11619;50.140;8.518;2023-04-29T14:32:16;2.58;;;2.13;;
22904;SDS011;11619;50.140;8.518;2023-04-29T14:34:43;2.35;;;2.13;;
22904;SDS011;11619;50.140;8.518;2023-04-29T14:37:09;2.83;;;2.58;;
22904;SDS011;11619;50.140;8.518;2023-04-29T14:39:36;3.03;;;2.67;;
22904;SDS011;11619;50.140;8.518;2023-04-29T14:42:04;2.83;;;2.53;;
22904;SDS011;11619;50.140;8.518;2023-04-29T14:44:31;2.58;;;2.38;;
22904;SDS011;11619;50.140;8.518;2023-04-29T14:46:58;2.72;;;2.50;;
22904;SDS011;11619;50.140;8.518;2023-04-29T14:49:24;2.63;;;2.42;;
22904;SDS011;11619;50.140;8.518;2023-04-29T14:51:51;2.97;;;2.50;;
22904;SDS011;11619;50.140;8.518;2023-04-29T14:54:17;3.05;;;2.75;;
22904;SDS011;11619;50.140;8.518;2023-04-29T14:56:43;3.00;;;2.80;;
22904;SDS011;11619;50.140;8.518;2023-04-29T14:59:10;4.70;;;3.20;;
22904;SDS011;11619;50.140;8.518;2023-04-29T15:01:37;3.45;;;3.15;;
22904;SDS011;11619;50.140;8.518;2023-04-29T15:04:05;3.60;;;2.97;;
22904;SDS011;11619;50.140;8.518;2023-04-29T15:06:32;3.42;;;3.13;;
22904;SDS011;11619;50.140;8.518;2023-04-29T15:08:58;3.70;;;3.13;;
22904;SDS011;11619;50.140;8.518;2023-04-29T15:11:25;3.45;;;3.15;;
22904;SDS011;11619;50.140;8.518;2023-04-29T15:13:51;3.35;;;3.13;;
22904;SDS011;11619;50.140;8.518;2023-04-29T15:16:17;3.47;;;3.17;;